Time;durP1;ratioP1;P1;durP2;ratioP2;P2;SDS_P1;SDS_P2;PMS_P1;PMS_P2;Temp;Humidity;BMP_temperature;BMP_pressure;BME280_temperature;BME280_humidity;BME280_pressure;Samples;Min_cycle;Max_cycle;Signal;HPM_P1;HPM_P2
2021/12/02 00:01:17;;;;;;;0.10;0.10;;;;;;;19.78;43.44;99393.50;5140027;27;20050;-36
2021/12/02 00:03:44;;;;;;;0.20;0.20;;;;;;;19.77;43.39;99402.94;5155977;27;20050;-37
2021/12/02 00:06:11;;;;;;;0.10;0.10;;;;;;;19.77;43.33;99399.34;5135605;27;20070;-36
2021/12/02 00:08:38;;;;;;;0.10;0.10;;;;;;;19.77;43.49;99391.88;5157415;27;20043;-37
2021/12/02 00:11:04;;;;;;;0.10;0.10;;;;;;;19.77;43.67;99397.41;5123738;27;20082;-36
2021/12/02 00:13:38;;;;;;;0.20;0.20;;;;;;;19.77;43.55;99394.66;5150639;27;20038;-35
2021/12/02 00:16:40;;;;;;;0.20;0.20;;;;;;;19.76;43.48;99392.19;5141407;27;20078;-36
2021/12/02 00:21:29;;;;;;;0.20;0.20;;;;;;;19.76;43.37;99394.94;5154682;27;20449;-35
2021/12/02 00:24:10;;;;;;;0.20;0.20;;;;;;;19.76;43.63;99400.47;5157360;27;20083;-36
2021/12/02 00:26:38;;;;;;;0.20;0.20;;;;;;;19.75;43.57;99390.56;5157569;27;20046;-36
2021/12/02 00:29:07;;;;;;;0.15;0.15;;;;;;;19.75;43.79;99398.84;5149360;27;20089;-37
2021/12/02 00:31:36;;;;;;;0.20;0.20;;;;;;;19.75;43.28;99405.19;5119729;27;20070;-36
2021/12/02 00:34:04;;;;;;;0.20;0.20;;;;;;;19.73;43.30;99404.72;5155014;27;20480;-36
2021/12/02 00:36:31;;;;;;;0.20;0.20;;;;;;;19.72;43.45;99405.81;5135980;27;20038;-36
2021/12/02 00:38:58;;;;;;;0.10;0.10;;;;;;;19.74;43.38;99403.56;5154417;27;20465;-36
2021/12/02 00:41:26;;;;;;;0.10;0.10;;;;;;;19.75;43.38;99409.91;5135385;27;20266;-35
2021/12/02 00:43:53;;;;;;;0.10;0.10;;;;;;;19.74;43.31;99406.34;5135513;27;20071;-37
2021/12/02 00:46:21;;;;;;;0.10;0.10;;;;;;;19.74;43.49;99413.81;5140362;27;20054;-37
2021/12/02 00:48:47;;;;;;;;;;;;;;;19.73;43.63;99410.25;5154294;27;20051;-39
2021/12/02 00:51:14;;;;;;;0.20;0.20;;;;;;;19.74;43.54;99408.28;5152672;27;20442;-36
2021/12/02 00:53:43;;;;;;;0.20;0.20;;;;;;;19.73;43.30;99413.00;5152517;27;20086;-36
2021/12/02 00:56:11;;;;;;;0.20;0.20;;;;;;;19.73;43.56;99414.91;5134104;27;20074;-37
2021/12/02 00:58:37;;;;;;;0.10;0.10;;;;;;;19.73;43.37;99414.91;5156641;27;20129;-36
2021/12/02 01:01:03;;;;;;;0.20;0.20;;;;;;;19.73;43.50;99412.16;5153272;27;20078;-40
2021/12/02 01:03:34;;;;;;;0.20;0.20;;;;;;;19.72;43.45;99416.88;5153350;27;20038;-37
2021/12/02 01:06:00;;;;;;;0.20;0.20;;;;;;;19.72;43.54;99416.88;5134260;27;20095;-36
2021/12/02 01:08:26;;;;;;;0.20;0.20;;;;;;;19.73;43.57;99417.69;5153682;27;20058;-35
2021/12/02 01:10:53;;;;;;;0.20;0.20;;;;;;;19.72;43.48;99422.41;5132906;27;20082;-36
2021/12/02 01:13:19;;;;;;;0.20;0.20;;;;;;;19.73;43.29;99420.44;5151435;27;20702;-37
2021/12/02 01:15:45;;;;;;;0.20;0.20;;;;;;;19.71;43.41;99431.81;5154536;27;20035;-36
2021/12/02 01:18:11;;;;;;;0.20;0.20;;;;;;;19.71;43.76;99433.78;5135075;27;20058;-36
2021/12/02 01:20:37;;;;;;;0.20;0.20;;;;;;;19.72;43.45;99421.59;5153331;27;20055;-37
2021/12/02 01:23:04;;;;;;;0.20;0.20;;;;;;;19.72;43.54;99427.09;5156074;27;20115;-36
2021/12/02 01:25:31;;;;;;;0.20;0.20;;;;;;;19.73;43.30;99434.25;5151880;27;20096;-36
2021/12/02 01:27:57;;;;;;;0.20;0.20;;;;;;;19.71;43.26;99434.59;5134307;27;20093;-37
2021/12/02 01:30:25;;;;;;;0.10;0.10;;;;;;;19.72;43.46;99443.69;5150980;27;20039;-36
2021/12/02 01:32:52;;;;;;;0.10;0.10;;;;;;;19.71;43.28;99442.88;5138105;27;20082;-36
2021/12/02 01:35:19;;;;;;;0.20;0.20;;;;;;;19.71;43.60;99439.28;5136962;27;20130;-36
2021/12/02 01:37:45;;;;;;;0.20;0.20;;;;;;;19.69;43.40;99436.88;5142088;27;20046;-36
2021/12/02 01:40:11;;;;;;;0.10;0.10;;;;;;;19.71;43.63;99442.88;5141243;27;20047;-36
2021/12/02 01:42:39;;;;;;;0.20;0.20;;;;;;;19.70;43.41;99432.16;5137554;27;20051;-36
2021/12/02 01:45:06;;;;;;;0.13;0.13;;;;;;;19.71;43.30;99429.06;5118747;27;20074;-36
2021/12/02 01:47:32;;;;;;;0.15;0.15;;;;;;;19.71;43.40;99436.53;5140590;27;20075;-37
2021/12/02 01:50:01;;;;;;;0.20;0.20;;;;;;;19.71;43.33;99445.63;5120704;27;20054;-36
2021/12/02 01:52:30;;;;;;;0.20;0.20;;;;;;;19.70;43.40;99444.00;5128485;27;20066;-36
2021/12/02 01:55:08;;;;;;;0.10;0.10;;;;;;;19.71;43.41;99437.34;5133736;27;20069;-36
2021/12/02 01:57:36;;;;;;;0.20;0.20;;;;;;;19.68;43.56;99426.94;5143764;27;20083;-36
2021/12/02 02:00:15;;;;;;;0.20;0.20;;;;;;;19.70;43.41;99434.91;5119997;27;20125;-37
2021/12/02 02:02:41;;;;;;;0.10;0.10;;;;;;;19.69;43.75;99431.34;5122623;27;20396;-35
2021/12/02 02:05:12;;;;;;;0.20;0.20;;;;;;;19.69;43.51;99439.63;5135651;27;20138;-36
2021/12/02 02:07:49;;;;;;;0.10;0.10;;;;;;;19.70;43.32;99434.91;5138583;27;20042;-36
2021/12/02 02:10:15;;;;;;;0.20;0.20;;;;;;;19.68;43.53;99440.75;5122252;27;20081;-36
2021/12/02 02:12:41;;;;;;;0.20;0.20;;;;;;;19.69;43.55;99436.03;5139579;27;20079;-36
2021/12/02 02:15:07;;;;;;;0.20;0.20;;;;;;;19.68;43.63;99439.94;5136381;27;20137;-36
2021/12/02 02:17:56;;;;;;;0.20;0.20;;;;;;;19.68;43.74;99437.97;5114190;28;20084;-36
2021/12/02 02:20:43;;;;;;;0.20;0.20;;;;;;;19.68;43.40;99431.66;5089788;28;20071;-40
2021/12/02 02:23:12;;;;;;;0.20;0.20;;;;;;;19.67;43.44;99441.06;5108436;28;20054;-36
2021/12/02 02:25:38;;;;;;;0.20;0.20;;;;;;;19.67;43.31;99436.34;5108798;28;20486;-36
2021/12/02 02:28:04;;;;;;;0.10;0.10;;;;;;;19.69;43.27;99438.78;5126866;28;20079;-36
2021/12/02 02:30:30;;;;;;;0.20;0.20;;;;;;;19.68;43.66;99435.22;5108003;28;20051;-37
2021/12/02 02:32:56;;;;;;;0.20;0.20;;;;;;;19.67;43.55;99430.03;5089732;28;20482;-36
2021/12/02 02:35:22;;;;;;;0.20;0.20;;;;;;;19.68;43.61;99428.88;5104975;28;20142;-36
2021/12/02 02:37:47;;;;;;;0.10;0.10;;;;;;;19.67;43.49;99430.84;5125132;28;20039;-37
2021/12/02 02:40:15;;;;;;;0.20;0.20;;;;;;;19.68;43.40;99426.13;5122649;28;20096;-36
2021/12/02 02:42:44;;;;;;;0.10;0.10;;;;;;;19.66;43.63;99431.97;5124542;27;20075;-37
2021/12/02 02:45:10;;;;;;;0.20;0.20;;;;;;;19.67;43.57;99419.78;5122387;28;20063;-36
2021/12/02 02:47:36;;;;;;;0.20;0.20;;;;;;;19.65;43.38;99422.06;5108611;28;20717;-36
2021/12/02 02:50:02;;;;;;;0.20;0.20;;;;;;;19.66;43.47;99423.69;5124688;28;20050;-36
2021/12/02 02:52:29;;;;;;;0.20;0.20;;;;;;;19.66;43.71;99431.16;5124179;28;20085;-36
2021/12/02 02:54:55;;;;;;;0.20;0.20;;;;;;;19.67;43.28;99430.03;5120933;28;20063;-38
2021/12/02 02:57:24;;;;;;;0.20;0.20;;;;;;;19.68;43.48;99431.66;5124152;28;20101;-40
2021/12/02 03:00:04;;;;;;;0.20;0.20;;;;;;;19.68;43.49;99423.34;5122534;28;20578;-36
2021/12/02 03:02:38;;;;;;;0.20;0.20;;;;;;;19.66;43.56;99436.69;5128323;28;20087;-36
2021/12/02 03:05:22;;;;;;;0.20;0.20;;;;;;;19.66;43.61;99436.69;5123834;28;20508;-35
2021/12/02 03:07:53;;;;;;;0.20;0.20;;;;;;;19.67;43.48;99432.78;5107871;28;20039;-36
2021/12/02 03:10:26;;;;;;;0.20;0.20;;;;;;;19.66;43.51;99436.69;5124638;28;20082;-43
2021/12/02 03:12:56;;;;;;;0.20;0.20;;;;;;;19.67;43.60;99441.88;5127929;28;20085;-37
2021/12/02 03:17:51;;;;;;;0.20;0.20;;;;;;;19.65;43.51;99435.88;5119996;28;20076;-37
2021/12/02 03:20:16;;;;;;;0.20;0.20;;;;;;;19.66;43.60;99442.22;5123488;28;20051;-36
2021/12/02 03:22:43;;;;;;;0.20;0.20;;;;;;;19.64;43.59;99431.47;5108317;28;20414;-37
2021/12/02 03:25:10;;;;;;;0.20;0.20;;;;;;;19.65;43.29;99426.78;5121393;28;20111;-36
2021/12/02 03:27:35;;;;;;;0.20;0.20;;;;;;;19.64;43.73;99428.69;5126165;28;20093;-35
2021/12/02 03:30:06;;;;;;;0.20;0.20;;;;;;;19.64;43.67;99436.19;5123310;28;20138;-36
2021/12/02 03:32:32;;;;;;;0.20;0.20;;;;;;;19.64;43.44;99419.59;5124575;28;20547;-35
2021/12/02 03:34:57;;;;;;;0.20;0.20;;;;;;;19.66;43.71;99431.16;5120499;28;20084;-36
2021/12/02 03:37:23;;;;;;;0.20;0.20;;;;;;;19.64;43.62;99434.22;5124918;28;20103;-36
2021/12/02 03:39:49;;;;;;;0.20;0.20;;;;;;;19.64;43.50;99439.75;5119923;28;20516;-36
2021/12/02 03:42:14;;;;;;;0.20;0.20;;;;;;;19.65;43.60;99444.16;5127951;28;20393;-38
2021/12/02 03:44:42;;;;;;;0.20;0.20;;;;;;;19.65;43.44;99449.69;5118682;28;20126;-35
2021/12/02 03:47:07;;;;;;;0.20;0.20;;;;;;;19.64;43.47;99445.28;5108702;28;20057;-35
2021/12/02 03:49:33;;;;;;;0.20;0.20;;;;;;;19.64;43.47;99447.22;5124992;28;20039;-36
2021/12/02 03:51:59;;;;;;;0.20;0.20;;;;;;;19.64;43.61;99433.41;5123444;28;20051;-38
2021/12/02 03:54:25;;;;;;;0.20;0.20;;;;;;;19.65;43.39;99446.13;5120561;27;20536;-38
2021/12/02 03:56:51;;;;;;;0.20;0.20;;;;;;;19.64;43.63;99436.19;5124212;28;20051;-35
2021/12/02 03:59:18;;;;;;;0.20;0.20;;;;;;;19.65;43.37;99432.31;5124644;28;20047;-35
2021/12/02 04:01:44;;;;;;;0.10;0.10;;;;;;;19.64;43.39;99436.19;5126988;28;20046;-36
2021/12/02 04:04:10;;;;;;;0.20;0.20;;;;;;;19.63;43.35;99424.31;5105568;28;20048;-39
2021/12/02 04:06:35;;;;;;;0.10;0.10;;;;;;;19.63;43.38;99434.56;5118824;28;20047;-36
2021/12/02 04:09:12;;;;;;;0.20;0.20;;;;;;;19.63;43.56;99449.19;5126850;28;20090;-36
2021/12/02 04:11:43;;;;;;;0.20;0.20;;;;;;;19.63;43.30;99445.59;5124002;28;20070;-36
2021/12/02 04:14:13;;;;;;;0.20;0.20;;;;;;;19.63;43.52;99454.69;5125060;28;20039;-36
2021/12/02 04:16:40;;;;;;;0.20;0.20;;;;;;;19.63;43.36;99451.94;5118357;28;20077;-37
2021/12/02 04:19:08;;;;;;;0.20;0.20;;;;;;;19.63;43.54;99451.13;5126524;28;20086;-38
2021/12/02 04:21:38;;;;;;;0.20;0.20;;;;;;;19.63;43.33;99449.19;5107846;28;20508;-37
2021/12/02 04:24:04;;;;;;;0.20;0.20;;;;;;;19.62;43.69;99444.78;5120591;28;20134;-37
2021/12/02 04:26:30;;;;;;;0.20;0.20;;;;;;;19.62;43.65;99436.50;5101097;28;20039;-36
2021/12/02 04:28:56;;;;;;;0.20;0.20;;;;;;;19.63;43.43;99443.66;5119504;28;20547;-36
2021/12/02 04:31:21;;;;;;;0.20;0.20;;;;;;;19.64;43.42;99449.97;5122487;28;20054;-37
2021/12/02 04:33:47;;;;;;;0.20;0.20;;;;;;;19.62;43.38;99442.03;5123637;28;20062;-36
2021/12/02 04:36:13;;;;;;;0.20;0.20;;;;;;;19.62;43.66;99447.56;5116069;28;20043;-36
2021/12/02 04:38:38;;;;;;;0.20;0.20;;;;;;;19.61;43.25;99445.94;5121227;28;20047;-39
2021/12/02 04:41:04;;;;;;;0.20;0.20;;;;;;;19.62;43.39;99452.25;5117942;28;20050;-35
2021/12/02 04:43:30;;;;;;;0.20;0.20;;;;;;;19.61;43.40;99453.41;5103616;28;20098;-38
2021/12/02 04:45:56;;;;;;;0.20;0.20;;;;;;;19.60;43.59;99458.06;5116965;28;20039;-35
2021/12/02 04:48:22;;;;;;;0.20;0.20;;;;;;;19.61;43.22;99456.97;5119079;28;20435;-39
2021/12/02 04:50:48;;;;;;;0.20;0.20;;;;;;;19.61;43.61;99462.50;5103010;28;20047;-35
2021/12/02 04:53:14;;;;;;;0.20;0.20;;;;;;;19.62;43.56;99466.06;5121375;28;20052;-36
2021/12/02 04:55:40;;;;;;;0.20;0.20;;;;;;;19.62;43.41;99466.88;5113782;28;20036;-37
2021/12/02 04:58:06;;;;;;;0.20;0.20;;;;;;;19.61;43.68;99467.22;5097953;28;20499;-35
2021/12/02 05:00:32;;;;;;;0.20;0.20;;;;;;;19.61;43.63;99467.22;5116790;28;20051;-36
2021/12/02 05:02:58;;;;;;;0.20;0.20;;;;;;;19.61;43.40;99464.44;5118570;28;20047;-39
2021/12/02 05:05:25;;;;;;;0.20;0.20;;;;;;;19.60;43.36;99469.09;5099142;28;20092;-36
2021/12/02 05:07:53;;;;;;;0.20;0.20;;;;;;;19.61;43.50;99473.56;5104868;28;20510;-37
2021/12/02 05:10:19;;;;;;;0.15;0.15;;;;;;;19.61;43.38;99464.44;5124222;28;20127;-36
2021/12/02 05:12:45;;;;;;;0.20;0.20;;;;;;;19.59;43.64;99467.47;5122552;28;20088;-37
2021/12/02 05:15:11;;;;;;;0.20;0.20;;;;;;;19.60;43.75;99469.09;5118301;28;20045;-36
2021/12/02 05:17:36;;;;;;;0.20;0.20;;;;;;;19.61;43.42;99476.31;5126948;28;20451;-35
2021/12/02 05:20:04;;;;;;;0.20;0.20;;;;;;;19.60;43.37;99471.06;5106290;28;20049;-36
2021/12/02 05:22:29;;;;;;;0.20;0.20;;;;;;;19.60;43.38;99462.78;5124167;28;20067;-35
2021/12/02 05:24:55;;;;;;;0.10;0.10;;;;;;;19.59;43.50;99464.72;5121525;28;20039;-36
2021/12/02 05:27:20;;;;;;;0.20;0.20;;;;;;;19.59;43.43;99461.16;5105936;28;20045;-36
2021/12/02 05:29:46;;;;;;;0.20;0.20;;;;;;;19.60;43.63;99465.53;5121844;28;20051;-38
2021/12/02 05:32:12;;;;;;;0.20;0.20;;;;;;;19.60;43.39;99460.81;5124311;28;20087;-36
2021/12/02 05:34:37;;;;;;;0.17;0.17;;;;;;;19.59;43.42;99461.97;5122651;28;20050;-36
2021/12/02 05:37:04;;;;;;;0.20;0.20;;;;;;;19.60;43.53;99457.25;5125387;28;20044;-36
2021/12/02 05:39:30;;;;;;;0.20;0.20;;;;;;;19.59;43.47;99463.91;5123403;28;20144;-37
2021/12/02 05:41:56;;;;;;;0.20;0.20;;;;;;;19.57;43.51;99461.47;5124499;28;20171;-36
2021/12/02 05:44:22;;;;;;;0.20;0.20;;;;;;;19.58;43.69;99465.88;5123063;27;20051;-36
2021/12/02 05:46:48;;;;;;;0.20;0.20;;;;;;;19.59;43.42;99456.44;5105665;28;20769;-36
2021/12/02 05:49:14;;;;;;;0.20;0.20;;;;;;;19.58;43.58;99456.78;5123972;28;20051;-36
2021/12/02 05:51:42;;;;;;;0.20;0.20;;;;;;;19.59;43.68;99458.38;5128305;28;20051;-36
2021/12/02 05:54:08;;;;;;;0.20;0.20;;;;;;;19.61;43.64;99456.16;5126025;28;20077;-37
2021/12/02 05:56:34;;;;;;;0.20;0.20;;;;;;;19.58;43.43;99456.78;5127884;28;20482;-37
2021/12/02 05:58:59;;;;;;;0.20;0.20;;;;;;;19.60;43.51;99462.78;5123914;28;20100;-38
2021/12/02 06:01:25;;;;;;;0.20;0.20;;;;;;;19.58;43.54;99468.63;5125273;28;20043;-36
2021/12/02 06:03:51;;;;;;;0.20;0.20;;;;;;;19.58;43.69;99474.16;5104358;28;20047;-38
2021/12/02 06:06:17;;;;;;;0.20;0.20;;;;;;;19.58;43.62;99478.84;5124391;28;20039;-35
2021/12/02 06:08:43;;;;;;;0.20;0.20;;;;;;;19.58;43.48;99490.72;5125787;28;20083;-35
2021/12/02 06:11:09;;;;;;;0.20;0.20;;;;;;;19.58;43.54;99479.66;5109080;28;20046;-36
2021/12/02 06:13:35;;;;;;;0.20;0.20;;;;;;;19.58;43.73;99489.91;5125550;28;20058;-37
2021/12/02 06:16:01;;;;;;;0.10;0.10;;;;;;;19.58;43.65;99482.44;5119368;28;20050;-37
2021/12/02 06:18:27;;;;;;;0.20;0.20;;;;;;;19.58;43.43;99493.47;5108504;28;20047;-38
2021/12/02 06:20:54;;;;;;;0.20;0.20;;;;;;;19.57;43.37;99491.03;5122611;28;20575;-36
2021/12/02 06:23:21;;;;;;;0.20;0.20;;;;;;;19.55;43.61;99492.16;5124289;28;20039;-36
2021/12/02 06:25:48;;;;;;;0.20;0.20;;;;;;;19.57;43.56;99493.81;5121986;28;20065;-35
2021/12/02 06:28:15;;;;;;;0.20;0.20;;;;;;;19.57;43.49;99499.34;5104853;28;20456;-39
2021/12/02 06:30:41;;;;;;;0.20;0.20;;;;;;;19.58;43.41;99507.28;5103684;28;20078;-36
2021/12/02 06:33:07;;;;;;;0.20;0.20;;;;;;;19.55;43.70;99499.63;5084610;28;20050;-38
2021/12/02 06:35:37;;;;;;;0.20;0.20;;;;;;;19.57;43.42;99507.63;5120341;28;20145;-38
2021/12/02 06:38:03;;;;;;;0.20;0.20;;;;;;;19.58;43.59;99523.03;5103792;28;20043;-38
2021/12/02 06:40:29;;;;;;;0.20;0.20;;;;;;;19.57;43.53;99513.13;5121117;28;20043;-39
2021/12/02 06:42:55;;;;;;;0.10;0.10;;;;;;;19.58;43.57;99520.28;5121322;28;20537;-45
2021/12/02 06:45:21;;;;;;;0.20;0.20;;;;;;;19.58;43.58;99514.75;5117042;28;20039;-42
2021/12/02 06:47:47;;;;;;;0.20;0.20;;;;;;;19.57;43.53;99526.94;5090806;28;20464;-37
2021/12/02 06:50:18;;;;;;;0.20;0.20;;;;;;;19.55;43.36;99528.06;5124559;28;20075;-36
2021/12/02 06:52:45;;;;;;;0.20;0.20;;;;;;;19.55;43.43;99539.09;5105685;28;20072;-38
2021/12/02 06:55:12;;;;;;;0.20;0.20;;;;;;;19.57;43.50;99540.75;5099155;28;20062;-42
2021/12/02 06:57:38;;;;;;;0.20;0.20;;;;;;;19.58;43.39;99542.38;5105524;28;20128;-39
2021/12/02 07:00:08;;;;;;;0.10;0.10;;;;;;;19.57;43.58;99540.75;5099758;28;20077;-41
2021/12/02 07:02:35;;;;;;;0.20;0.20;;;;;;;19.55;43.74;99539.09;5099879;28;20101;-41
2021/12/02 07:05:01;;;;;;;0.20;0.20;;;;;;;19.55;43.40;99530.00;5118628;28;20055;-40
2021/12/02 07:07:31;;;;;;;0.20;0.20;;;;;;;19.55;43.50;99544.63;5120706;28;20105;-39
2021/12/02 07:09:59;;;;;;;0.20;0.20;;;;;;;19.55;43.59;99539.09;5098449;28;20082;-36
2021/12/02 07:12:33;;;;;;;0.20;0.20;;;;;;;19.58;43.35;99550.66;5120905;28;20055;-39
2021/12/02 07:15:06;;;;;;;0.20;0.20;;;;;;;19.57;43.45;99549.03;5114087;28;20078;-38
2021/12/02 07:17:32;;;;;;;0.10;0.10;;;;;;;19.55;43.66;99554.84;5100703;28;20466;-39
2021/12/02 07:19:59;;;;;;;0.20;0.20;;;;;;;19.63;43.44;99556.88;5120317;28;20601;-40
2021/12/02 07:22:25;;;;;;;0.17;0.17;;;;;;;19.69;43.31;99555.63;5122229;28;20077;-38
2021/12/02 07:24:50;;;;;;;0.10;0.10;;;;;;;19.71;43.23;99569.94;5096001;28;20043;-41
2021/12/02 07:27:16;;;;;;;0.20;0.20;;;;;;;19.69;43.19;99574.13;5102548;28;20478;-37
2021/12/02 07:29:42;;;;;;;0.20;0.20;;;;;;;19.66;43.20;99572.00;5121867;27;20474;-37
2021/12/02 07:32:10;;;;;;;0.10;0.10;;;;;;;19.65;43.30;99582.25;5101761;28;20043;-43
2021/12/02 07:34:37;;;;;;;;;;;;;;;19.66;43.29;99580.31;5092089;28;20129;-37
2021/12/02 07:37:03;;;;;;;0.20;0.20;;;;;;;19.66;43.43;99583.06;5116721;27;19966;-39
2021/12/02 07:39:29;;;;;;;0.20;0.20;;;;;;;19.66;43.17;99586.63;5114825;27;20035;-37
2021/12/02 07:41:55;;;;;;;0.20;0.20;;;;;;;19.67;43.44;99590.22;5083655;28;20483;-39
2021/12/02 07:44:21;;;;;;;0.10;0.10;;;;;;;19.68;43.24;99592.66;5112336;28;20062;-38
2021/12/02 07:46:46;;;;;;;0.20;0.20;;;;;;;19.68;43.35;99583.56;5081690;28;20099;-39
2021/12/02 07:49:12;;;;;;;0.20;0.20;;;;;;;19.69;43.29;99593.47;5115396;27;20057;-35
2021/12/02 07:51:40;;;;;;;0.10;0.10;;;;;;;19.68;43.33;99592.66;5117904;28;20043;-40
2021/12/02 07:54:06;;;;;;;0.13;0.13;;;;;;;19.70;43.18;99604.22;5112505;27;20074;-46
2021/12/02 07:56:33;;;;;;;0.10;0.10;;;;;;;19.69;43.24;99599.81;5114392;27;20467;-37
2021/12/02 07:59:03;;;;;;;0.20;0.20;;;;;;;19.69;43.34;99597.06;5116214;28;20039;-38
2021/12/02 08:01:29;;;;;;;0.20;0.20;;;;;;;19.70;43.18;99595.13;5110406;27;20105;-38
2021/12/02 08:03:55;;;;;;;0.20;0.20;;;;;;;19.71;43.25;99605.03;5111516;28;20270;-36
2021/12/02 08:06:23;;;;;;;0.20;0.20;;;;;;;19.71;42.91;99605.03;5110521;28;20478;-41
2021/12/02 08:08:49;;;;;;;0.20;0.20;;;;;;;19.71;42.86;99605.84;5106659;28;20670;-37
2021/12/02 08:11:15;;;;;;;0.20;0.20;;;;;;;19.73;43.21;99622.09;5108862;28;20058;-40
2021/12/02 08:13:40;;;;;;;0.20;0.20;;;;;;;19.73;43.24;99627.59;5094072;28;20046;-46
2021/12/02 08:16:07;;;;;;;0.20;0.20;;;;;;;19.73;43.06;99624.84;5113586;28;20044;-36
2021/12/02 08:18:33;;;;;;;0.20;0.20;;;;;;;19.74;42.96;99632.03;5111505;28;20138;-41
2021/12/02 08:20:59;;;;;;;0.20;0.20;;;;;;;19.74;42.66;99635.59;5066801;28;20337;-39
2021/12/02 08:23:26;;;;;;;0.20;0.20;;;;;;;19.75;42.74;99644.69;5116340;28;20044;-40
2021/12/02 08:25:53;;;;;;;0.20;0.20;;;;;;;19.75;42.89;99653.78;5095068;28;20545;-41
2021/12/02 08:28:18;;;;;;;0.20;0.20;;;;;;;19.76;42.99;99643.56;5100793;28;20784;-42
2021/12/02 08:30:44;;;;;;;0.20;0.20;;;;;;;19.76;42.84;99647.13;5116767;27;20051;-41
2021/12/02 08:33:12;;;;;;;0.20;0.20;;;;;;;19.76;42.88;99644.38;5111897;28;20693;-38
2021/12/02 08:35:38;;;;;;;0.10;0.10;;;;;;;19.78;42.63;99644.88;5113177;28;20078;-38
2021/12/02 08:38:09;;;;;;;0.20;0.20;;;;;;;19.85;43.64;99646.38;5117383;27;20106;-40
2021/12/02 08:40:36;;;;;;;0.20;0.20;;;;;;;19.89;43.36;99650.13;5091632;28;20147;-42
2021/12/02 08:43:04;;;;;;;0.10;0.10;;;;;;;19.87;43.39;99661.50;5099847;28;20043;-41
2021/12/02 08:45:30;;;;;;;;;;;;;;;19.87;43.37;99667.03;5097116;28;20336;-40
2021/12/02 08:47:57;;;;;;;0.20;0.20;;;;;;;19.86;43.17;99678.38;5120881;28;20439;-40
2021/12/02 08:50:23;;;;;;;0.20;0.20;;;;;;;19.85;43.52;99680.34;5103612;28;20078;-41
2021/12/02 08:52:50;;;;;;;0.10;0.10;;;;;;;19.86;43.41;99683.91;5094771;28;20047;-39
2021/12/02 08:55:17;;;;;;;0.20;0.20;;;;;;;19.87;43.25;99677.28;5082368;28;20143;-39
2021/12/02 08:57:46;;;;;;;0.20;0.20;;;;;;;19.86;43.28;99684.75;5101148;28;20092;-42
2021/12/02 09:00:14;;;;;;;0.20;0.20;;;;;;;19.85;43.33;99685.84;5091150;28;20078;-42
2021/12/02 09:02:39;;;;;;;0.13;0.13;;;;;;;19.86;43.22;99692.19;5075147;28;20043;-40
2021/12/02 09:05:06;;;;;;;0.20;0.20;;;;;;;19.89;42.00;99688.81;5089057;28;20047;-38
2021/12/02 09:07:34;;;;;;;0.20;0.20;;;;;;;19.91;42.05;99694.84;5096001;28;20082;-40
2021/12/02 09:09:59;;;;;;;0.10;0.10;;;;;;;19.91;42.48;99697.63;5114662;27;20077;-36
2021/12/02 09:12:25;;;;;;;0.10;0.10;;;;;;;19.89;42.53;99711.72;5096570;28;20039;-40
2021/12/02 09:14:51;;;;;;;0.20;0.20;;;;;;;19.88;42.48;99707.34;5108268;27;20058;-41
2021/12/02 09:17:17;;;;;;;0.20;0.20;;;;;;;19.88;42.58;99710.09;5093290;28;20102;-39
2021/12/02 09:19:43;;;;;;;0.20;0.20;;;;;;;19.88;42.34;99706.53;5100883;28;20078;-42
2021/12/02 09:22:09;;;;;;;0.20;0.20;;;;;;;19.88;42.26;99721.16;5118119;28;20501;-38
2021/12/02 09:24:36;;;;;;;0.20;0.20;;;;;;;19.88;42.21;99717.59;5113562;28;20451;-41
2021/12/02 09:27:02;;;;;;;0.20;0.20;;;;;;;19.87;42.41;99730.59;5096001;28;20486;-42
2021/12/02 09:29:29;;;;;;;0.20;0.20;;;;;;;19.88;42.29;99729.44;5101560;28;20114;-43
2021/12/02 09:31:54;;;;;;;0.20;0.20;;;;;;;19.90;42.18;99726.34;5097503;28;20488;-41
2021/12/02 09:34:20;;;;;;;0.20;0.20;;;;;;;19.89;42.23;99728.31;5093701;28;20181;-41
2021/12/02 09:36:46;;;;;;;0.20;0.20;;;;;;;19.90;42.13;99740.16;5113598;28;20053;-43
2021/12/02 09:39:13;;;;;;;0.20;0.20;;;;;;;19.88;42.19;99725.88;5112776;28;20269;-42
2021/12/02 09:41:40;;;;;;;0.20;0.20;;;;;;;19.89;42.12;99727.50;5091625;28;20043;-43
2021/12/02 09:44:06;;;;;;;0.20;0.20;;;;;;;19.90;42.27;99729.94;5114424;28;20137;-40
2021/12/02 09:46:32;;;;;;;0.20;0.20;;;;;;;19.91;42.27;99739.06;5100077;28;20134;-41
2021/12/02 09:49:00;;;;;;;0.20;0.20;;;;;;;19.92;42.03;99741.50;5116913;28;20056;-39
2021/12/02 09:51:31;;;;;;;0.20;0.20;;;;;;;19.92;42.35;99738.75;5097263;28;20507;-39
2021/12/02 09:54:21;;;;;;;0.20;0.20;;;;;;;19.92;42.07;99741.50;5098607;28;20551;-41
2021/12/02 09:56:50;;;;;;;0.20;0.20;;;;;;;19.93;42.13;99737.59;5120588;28;20097;-41
2021/12/02 09:59:50;;;;;;;0.20;0.20;;;;;;;19.94;42.16;99741.19;5115133;27;20130;-39
2021/12/02 10:02:06;;;;;;;0.20;0.20;;;;;;;19.94;42.00;99741.19;5111764;27;20101;-39
2021/12/02 10:04:39;;;;;;;0.20;0.20;;;;;;;19.95;42.10;99738.13;5112316;28;20054;-39
2021/12/02 10:07:17;;;;;;;0.20;0.20;;;;;;;19.94;41.98;99744.75;5099199;28;20078;-42
2021/12/02 10:10:02;;;;;;;0.20;0.20;;;;;;;19.95;42.19;99751.13;5097650;28;20478;-38
2021/12/02 10:12:31;;;;;;;0.20;0.20;;;;;;;19.95;42.06;99754.69;5098756;28;20051;-38
2021/12/02 10:14:59;;;;;;;;;;;;;;;19.95;42.05;99743.66;5114606;27;20067;-40
2021/12/02 10:18:02;;;;;;;0.20;0.20;;;;;;;19.95;42.01;99753.88;5111788;27;20021;-40
2021/12/02 10:20:25;;;;;;;0.20;0.20;;;;;;;19.95;42.13;99757.47;5104149;28;20079;-42
2021/12/02 10:23:19;;;;;;;0.10;0.10;;;;;;;19.95;41.88;99751.94;5121280;27;20739;-40
2021/12/02 10:25:55;;;;;;;0.20;0.20;;;;;;;19.94;42.03;99755.00;5087048;28;20065;-42
2021/12/02 10:28:21;;;;;;;0.20;0.20;;;;;;;19.95;41.81;99748.38;5079950;27;20072;-39
2021/12/02 10:30:50;;;;;;;0.20;0.20;;;;;;;19.94;41.94;99755.00;5090342;28;20047;-39
2021/12/02 10:33:30;;;;;;;0.15;0.15;;;;;;;19.97;41.25;99752.44;5112573;28;21637;-42
2021/12/02 10:35:56;;;;;;;0.20;0.20;;;;;;;20.00;41.07;99762.84;5094392;28;20067;-41
2021/12/02 10:38:41;;;;;;;0.10;0.10;;;;;;;19.94;40.44;99758.56;5096889;28;20043;-41
2021/12/02 10:41:12;;;;;;;0.20;0.20;;;;;;;19.98;40.71;99761.53;5111185;28;20093;-41
2021/12/02 10:44:01;;;;;;;0.20;0.20;;;;;;;19.52;35.13;99757.09;5098233;28;20238;-40
2021/12/02 10:46:27;;;;;;;0.20;0.20;;;;;;;19.68;38.02;99757.56;5099766;27;20062;-43
2021/12/02 10:48:53;;;;;;;0.20;0.20;;;;;;;19.77;38.96;99761.19;5114735;28;20047;-41
2021/12/02 10:51:43;;;;;;;0.20;0.20;;;;;;;19.80;39.10;99766.13;5095176;28;20054;-39
2021/12/02 10:54:13;;;;;;;0.20;0.20;;;;;;;19.83;38.95;99771.03;5081478;28;21532;-39
2021/12/02 10:56:42;;;;;;;0.20;0.20;;;;;;;19.68;36.42;99766.66;5097008;28;20059;-41
2021/12/02 10:59:27;;;;;;;;;;;;;;;19.79;37.67;99770.81;5115691;28;20043;-39
2021/12/02 11:01:55;;;;;;;0.10;0.10;;;;;;;19.83;38.83;99767.44;5103062;28;20027;-41
2021/12/02 11:04:22;;;;;;;0.20;0.20;;;;;;;19.85;38.72;99765.16;5092404;28;20047;-40
2021/12/02 11:06:51;;;;;;;0.20;0.20;;;;;;;19.86;39.23;99764.88;5114609;28;20130;-39
2021/12/02 11:09:27;;;;;;;0.20;0.20;;;;;;;19.88;38.81;99759.84;5094528;28;20061;-39
2021/12/02 11:12:14;;;;;;;0.20;0.20;;;;;;;19.88;39.00;99751.56;5098702;28;20535;-39
2021/12/02 11:14:42;;;;;;;0.20;0.20;;;;;;;19.90;39.24;99754.00;5100604;27;20090;-39
2021/12/02 11:17:14;;;;;;;0.20;0.20;;;;;;;19.91;39.28;99753.69;5096486;28;20063;-40
2021/12/02 11:19:45;;;;;;;0.20;0.20;;;;;;;19.91;39.60;99752.88;5115268;28;20076;-46
2021/12/02 11:22:15;;;;;;;0.20;0.20;;;;;;;19.92;39.77;99758.09;5107729;28;20055;-42
2021/12/02 11:24:40;;;;;;;0.20;0.20;;;;;;;19.92;39.51;99755.31;5109477;28;20235;-42
2021/12/02 11:27:20;;;;;;;0.20;0.20;;;;;;;19.92;39.46;99752.56;5115282;28;20413;-40
2021/12/02 11:30:07;;;;;;;0.20;0.20;;;;;;;19.94;39.47;99755.81;5115856;28;20073;-39
2021/12/02 11:32:36;;;;;;;0.20;0.20;;;;;;;19.95;39.53;99762.19;5085452;28;20078;-42
2021/12/02 11:35:07;;;;;;;0.20;0.20;;;;;;;19.95;39.45;99768.53;5093802;28;20063;-41
2021/12/02 11:37:35;;;;;;;0.20;0.20;;;;;;;19.96;39.66;99769.31;5093094;28;20054;-42
2021/12/02 11:40:06;;;;;;;0.20;0.20;;;;;;;19.97;39.49;99768.19;5111789;28;20071;-40
2021/12/02 11:42:32;;;;;;;0.20;0.20;;;;;;;19.97;39.63;99782.00;5109809;28;20478;-43
2021/12/02 11:44:57;;;;;;;0.20;0.20;;;;;;;19.98;39.73;99780.88;5107276;28;20141;-41